METAR Data
IDs: Format: Raw Decoded Include TAF

Data at: 0111 UTC 06 Dec 2019

KGHG 060055Z AUTO 27007G14KT 230V320 10SM CLR 02/M07 A2983 RMK AO2
KGHG 060035Z AUTO 27007G17KT 10SM FEW075 02/M07 A2982 RMK AO2
KGHG 060015Z AUTO 27010G15KT 230V290 10SM SCT075 03/M07 A2981 RMK AO2
KGHG 052355Z AUTO 26009G16KT 220V280 10SM BKN070 03/M06 A2980 RMK AO2
KGHG 052335Z AUTO 27008G14KT 240V300 10SM OVC065 04/M06 A2979 RMK AO2
KGHG 052315Z AUTO 27007G14KT 220V300 10SM OVC065 04/M06 A2979 RMK AO2
KGHG 052255Z AUTO VRB05G14KT 10SM OVC065 04/M06 A2977 RMK AO2
KGHG 052235Z AUTO 28008G15KT 240V330 10SM OVC060 04/M04 A2976 RMK AO2
KGHG 052215Z AUTO 28008G16KT 10SM OVC060 04/M03 A2975 RMK AO2
KGHG 052155Z AUTO VRB06KT 10SM OVC060 04/M03 A2973 RMK AO2
KGHG 052135Z AUTO 28007G14KT 240V320 10SM OVC060 05/M03 A2971 RMK AO2
KGHG 052115Z AUTO VRB06G13KT 10SM OVC055 05/M03 A2970 RMK AO2
KGHG 052055Z AUTO 28006KT 10SM OVC055 05/M03 A2969 RMK AO2
KGHG 052035Z AUTO 28007KT 240V310 10SM OVC055 05/M03 A2968 RMK AO2
KGHG 052015Z AUTO 28007KT 10SM OVC050 06/M03 A2966 RMK AO2
KGHG 051955Z AUTO VRB06G14KT 10SM OVC050 06/M03 A2965 RMK AO2
KGHG 051935Z AUTO 29010G18KT 260V330 10SM OVC050 06/M03 A2964 RMK AO2
KGHG 051915Z AUTO 28007G13KT 240V310 10SM OVC048 06/M02 A2963 RMK AO2
KGHG 051855Z AUTO 30008G14KT 10SM BKN043 06/M02 A2962 RMK AO2
KGHG 051835Z AUTO 28007G16KT 230V310 10SM FEW039 06/M02 A2961 RMK AO2 LTG DSNT S
KGHG 051815Z AUTO 28009G17KT 260V330 10SM CLR 07/M01 A2960 RMK AO2
KGHG 051755Z AUTO 27007G15KT 230V310 10SM CLR 07/M01 A2960 RMK AO2
KGHG 051735Z AUTO 27010G15KT 220V300 10SM CLR 07/M01 A2959 RMK AO2
KGHG 051715Z AUTO 28008G15KT 250V310 10SM CLR 06/M01 A2960 RMK AO2
KGHG 051655Z AUTO 28009G17KT 240V310 10SM CLR 07/M01 A2959 RMK AO2
KGHG 051635Z AUTO 31010KT 280V340 10SM CLR 06/M01 A2959 RMK AO2
KGHG 051615Z AUTO 28007G15KT 250V310 10SM CLR 06/M01 A2959 RMK AO2
KGHG 051555Z AUTO 26007G16KT 230V310 10SM CLR 05/M01 A2959 RMK AO2
KGHG 051535Z AUTO 25009KT 10SM CLR 05/M01 A2959 RMK AO2
KGHG 051515Z AUTO 28010G16KT 240V310 10SM CLR 05/M00 A2959 RMK AO2
KGHG 051455Z AUTO 27007G13KT 240V310 10SM CLR 04/M00 A2959 RMK AO2
KGHG 051435Z AUTO 26007G14KT 220V310 10SM CLR 03/M00 A2959 RMK AO2
KGHG 051415Z AUTO 26006KT 10SM CLR 02/M00 A2958 RMK AO2 LTG DSNT S
KGHG 051355Z AUTO VRB05G11KT 10SM CLR 02/M01 A2958 RMK AO2
KGHG 051335Z AUTO VRB05G10KT 8SM CLR 02/M00 A2958 RMK AO2 LTG DSNT SE AND S
KGHG 051315Z AUTO 24005KT 10SM CLR 01/M01 A2957 RMK AO2
KGHG 051255Z AUTO VRB04KT 10SM CLR 01/M00 A2957 RMK AO2
KGHG 051235Z AUTO 25004KT 10SM CLR 00/M01 A2956 RMK AO2
KGHG 051215Z AUTO VRB03KT 10SM CLR 00/M01 A2955 RMK AO2
KGHG 051155Z AUTO VRB05KT 10SM CLR M00/M01 A2955 RMK AO2
KGHG 051135Z AUTO 26005KT 10SM CLR M00/M01 A2954 RMK AO2 LTG DSNT S
KGHG 051115Z AUTO 26005KT 10SM CLR M00/M01 A2953 RMK AO2 LTG DSNT S
KGHG 051055Z AUTO 26003KT 10SM CLR 00/M01 A2952 RMK AO2
KGHG 051035Z AUTO VRB04KT 10SM CLR 00/M01 A2952 RMK AO2
KGHG 051015Z AUTO 25005KT 10SM CLR 00/M01 A2951 RMK AO2
KGHG 050955Z AUTO 26005KT 10SM CLR 00/M01 A2950 RMK AO2 LTG DSNT SE AND S
KGHG 050935Z AUTO VRB04KT 10SM CLR 00/M00 A2950 RMK AO2
KGHG 050915Z AUTO 25004KT 10SM CLR 00/M01 A2949 RMK AO2
KGHG 050855Z AUTO 25004KT 10SM CLR 00/M01 A2949 RMK AO2
KGHG 050835Z AUTO 25005KT 10SM FEW070 00/M01 A2948 RMK AO2
KGHG 050815Z AUTO VRB03KT 10SM BKN070 00/M00 A2948 RMK AO2
KGHG 050755Z AUTO 25003KT 10SM FEW070 00/M01 A2948 RMK AO2
KGHG 050735Z AUTO 24004KT 10SM CLR 00/M01 A2948 RMK AO2
KGHG 050715Z AUTO 25004KT 10SM CLR 00/M01 A2948 RMK AO2
KGHG 050655Z AUTO VRB04KT 10SM CLR 01/M00 A2948 RMK AO2
KGHG 050635Z AUTO 25004KT 10SM CLR 01/M00 A2947 RMK AO2
KGHG 050615Z AUTO 24005KT 10SM CLR 01/M00 A2947 RMK AO2
KGHG 050555Z AUTO 24004KT 10SM CLR 01/M00 A2947 RMK AO2
KGHG 050535Z AUTO 25004KT 10SM CLR 01/M00 A2946 RMK AO2
KGHG 050515Z AUTO 25004KT 10SM CLR 01/M00 A2947 RMK AO2
KGHG 050455Z AUTO 00000KT 10SM CLR 01/M00 A2947 RMK AO2
KGHG 050435Z AUTO 00000KT 10SM FEW060 01/M00 A2947 RMK AO2
KGHG 050415Z AUTO 00000KT 10SM FEW060 01/M00 A2948 RMK AO2
KGHG 050355Z AUTO 24003KT 10SM SCT050 SCT060 01/M00 A2947 RMK AO2
KGHG 050335Z AUTO 23003KT 10SM OVC050 02/M00 A2947 RMK AO2
KGHG 050315Z AUTO 00000KT 10SM OVC049 02/M00 A2948 RMK AO2
KGHG 050255Z AUTO 00000KT 10SM OVC048 02/M00 A2947 RMK AO2
KGHG 050235Z AUTO 00000KT 10SM OVC048 02/M00 A2947 RMK AO2
KGHG 050215Z AUTO 00000KT 10SM OVC047 02/00 A2947 RMK AO2
KGHG 050155Z AUTO 22003KT 10SM OVC046 02/00 A2947 RMK AO2
KGHG 050135Z AUTO 22004KT 10SM OVC046 02/00 A2948 RMK AO2
KGHG 050115Z AUTO 00000KT 10SM OVC046 02/00 A2948 RMK AO2
KGHG 050055Z AUTO 00000KT 10SM OVC045 02/00 A2948 RMK AO2
KGHG 050035Z AUTO 00000KT 10SM OVC045 02/00 A2948 RMK AO2
KGHG 050015Z AUTO 00000KT 10SM OVC046 01/00 A2948 RMK AO2
KGHG 042355Z AUTO 00000KT 10SM OVC047 01/00 A2948 RMK AO2
KGHG 042335Z AUTO 22003KT 10SM OVC047 01/00 A2948 RMK AO2
KGHG 042315Z AUTO 00000KT 10SM OVC047 01/00 A2948 RMK AO2
KGHG 042255Z AUTO 23003KT 10SM OVC047 01/00 A2948 RMK AO2
KGHG 042235Z AUTO 00000KT 10SM OVC048 01/00 A2948 RMK AO2
KGHG 042215Z AUTO 00000KT 10SM OVC049 02/00 A2947 RMK AO2
KGHG 042155Z AUTO 23004KT 10SM BKN049 02/00 A2947 RMK AO2
KGHG 042135Z AUTO 24004KT 10SM BKN050 02/00 A2947 RMK AO2
KGHG 042115Z AUTO 22005KT 10SM BKN050 02/00 A2947 RMK AO2
KGHG 042055Z AUTO 22004KT 10SM OVC050 02/00 A2947 RMK AO2
KGHG 042035Z AUTO 22004KT 10SM OVC050 02/00 A2947 RMK AO2
KGHG 042015Z AUTO 22004KT 10SM OVC050 02/00 A2946 RMK AO2
KGHG 041955Z AUTO 22005KT 10SM OVC055 03/00 A2947 RMK AO2
KGHG 041935Z AUTO 21004KT 10SM OVC055 03/00 A2948 RMK AO2
KGHG 041915Z AUTO 22003KT 10SM BKN055 03/M00 A2948 RMK AO2
KGHG 041855Z AUTO 22004KT 10SM BKN060 03/M00 A2948 RMK AO2 P0003
KGHG 041835Z AUTO 24005KT 9SM SCT060 SCT080 03/M00 A2948 RMK AO2
KGHG 041815Z AUTO VRB04KT 10SM FEW070 FEW080 03/M00 A2948 RMK AO2
KGHG 041755Z AUTO 24004KT 10SM SCT065 02/M00 A2949 RMK AO2 P0004
KGHG 041735Z AUTO VRB04G10KT 10SM SCT060 02/M01 A2949 RMK AO2
KGHG 041715Z AUTO VRB05G13KT 10SM CLR 02/M01 A2949 RMK AO2
KGHG 041655Z AUTO VRB05KT 10SM CLR 02/M01 A2950 RMK AO2
KGHG 041635Z AUTO VRB05KT 10SM CLR 02/M01 A2950 RMK AO2
KGHG 041615Z AUTO 25006KT 10SM CLR 01/M02 A2951 RMK AO2
KGHG 041555Z AUTO 25007KT 240V300 10SM CLR 01/M02 A2952 RMK AO2
KGHG 041535Z AUTO 25005G11KT 10SM CLR 01/M02 A2953 RMK AO2
KGHG 041515Z AUTO 24004KT 10SM CLR 00/M03 A2953 RMK AO2
KGHG 041455Z AUTO 25006KT 10SM CLR M00/M03 A2953 RMK AO2
KGHG 041435Z AUTO 24005KT 10SM CLR M01/M04 A2953 RMK AO2
KGHG 041415Z AUTO 25005KT 10SM CLR M01/M04 A2953 RMK AO2
KGHG 041355Z AUTO VRB04KT 10SM CLR M02/M05 A2953 RMK AO2
KGHG 041335Z AUTO 23006KT 10SM CLR M02/M05 A2953 RMK AO2
KGHG 041315Z AUTO 24003KT 10SM CLR M02/M05 A2953 RMK AO2